createdAt,value
2019-03-10T00:02:24.291Z,10.21
2019-03-10T00:04:55.174Z,10.30
2019-03-10T00:07:26.115Z,10.29
2019-03-10T00:09:57.148Z,10.32
2019-03-10T00:12:28.250Z,10.40
2019-03-10T00:14:59.366Z,10.45
2019-03-10T00:17:30.309Z,10.37
2019-03-10T00:20:01.272Z,10.37
2019-03-10T00:22:32.303Z,10.41
2019-03-10T00:25:03.478Z,10.47
2019-03-10T00:27:34.508Z,10.54
2019-03-10T00:30:14.190Z,10.52
2019-03-10T00:32:45.171Z,10.47
2019-03-10T00:35:16.225Z,10.51
2019-03-10T00:37:47.222Z,10.56
2019-03-10T00:40:40.959Z,10.58
2019-03-10T00:43:48.363Z,10.63
2019-03-10T00:46:55.583Z,10.62
2019-03-10T00:49:45.992Z,10.67
2019-03-10T00:52:20.670Z,10.74
2019-03-10T00:54:51.816Z,10.79
2019-03-10T00:57:22.876Z,10.75
2019-03-10T00:59:53.960Z,10.69
2019-03-10T01:02:24.856Z,10.68
2019-03-10T01:04:55.847Z,10.71
2019-03-10T01:07:26.981Z,10.73
2019-03-10T01:09:58.024Z,10.87
2019-03-10T01:12:29.040Z,10.92
2019-03-10T01:14:59.996Z,10.89
2019-03-10T01:17:32.425Z,10.86
2019-03-10T01:20:03.566Z,10.84
2019-03-10T01:22:35.320Z,10.80
2019-03-10T01:25:09.164Z,10.85
2019-03-10T01:27:40.204Z,10.84
2019-03-10T01:30:16.880Z,10.94
2019-03-10T01:33:10.406Z,10.92
2019-03-10T01:35:42.674Z,10.91
2019-03-10T01:38:13.884Z,10.92
2019-03-10T01:40:44.928Z,10.92
2019-03-10T01:43:16.040Z,10.93
2019-03-10T01:45:46.978Z,10.94
2019-03-10T01:48:18.084Z,10.93
2019-03-10T01:50:49.029Z,10.92
2019-03-10T01:53:25.500Z,10.90
2019-03-10T01:55:52.629Z,10.83
2019-03-10T01:58:23.614Z,10.72
2019-03-10T02:00:54.725Z,10.68
2019-03-10T02:03:25.668Z,10.63
2019-03-10T02:05:56.674Z,10.54
2019-03-10T02:08:27.690Z,10.54
2019-03-10T02:10:58.729Z,10.51
2019-03-10T02:13:29.730Z,10.54
2019-03-10T02:16:00.648Z,10.54
2019-03-10T02:18:31.648Z,10.53
2019-03-10T02:21:02.612Z,10.52
2019-03-10T02:23:33.606Z,10.54
2019-03-10T02:26:04.704Z,10.58
2019-03-10T02:28:35.838Z,10.54
2019-03-10T02:31:06.756Z,10.49
2019-03-10T02:33:37.798Z,10.45
2019-03-10T02:36:08.798Z,10.40
2019-03-10T02:38:39.821Z,10.32
2019-03-10T02:41:10.739Z,10.38
2019-03-10T02:43:41.794Z,10.41
2019-03-10T02:46:12.806Z,10.41
2019-03-10T02:48:43.695Z,10.40
2019-03-10T02:51:14.832Z,10.36
2019-03-10T02:53:45.779Z,10.30
2019-03-10T02:56:16.879Z,10.23
2019-03-10T02:58:47.770Z,10.17
2019-03-10T03:01:18.717Z,10.21
2019-03-10T03:03:49.759Z,10.16
2019-03-10T03:06:20.797Z,10.16
2019-03-10T03:08:51.845Z,10.18
2019-03-10T03:11:22.819Z,10.14
2019-03-10T03:13:53.845Z,10.04
2019-03-10T03:16:24.785Z,10.01
2019-03-10T03:18:55.742Z,9.95
2019-03-10T03:21:26.616Z,9.83
2019-03-10T03:23:57.561Z,9.81
2019-03-10T03:26:28.433Z,9.83
2019-03-10T03:28:59.412Z,9.90
2019-03-10T03:31:30.415Z,9.91
2019-03-10T03:34:01.435Z,9.91
2019-03-10T03:36:34.386Z,9.87
2019-03-10T03:39:17.691Z,9.92
2019-03-10T03:41:48.954Z,9.85
2019-03-10T03:44:20.111Z,9.91
2019-03-10T03:46:51.093Z,9.92
2019-03-10T03:49:22.264Z,9.97
2019-03-10T03:51:53.206Z,9.98
2019-03-10T03:54:24.123Z,9.97
2019-03-10T03:56:55.062Z,9.94
2019-03-10T03:59:26.047Z,9.99
2019-03-10T04:02:04.582Z,10.01
2019-03-10T04:04:35.793Z,10.02
2019-03-10T04:07:06.911Z,10.10
2019-03-10T04:09:37.864Z,10.16
2019-03-10T04:12:08.821Z,10.12
2019-03-10T04:14:39.716Z,10.10
2019-03-10T04:17:10.670Z,10.03
2019-03-10T04:19:41.938Z,9.93
2019-03-10T04:22:12.965Z,9.87
2019-03-10T04:24:43.952Z,9.81
2019-03-10T04:27:14.821Z,9.81
2019-03-10T04:29:45.761Z,9.86
2019-03-10T04:32:16.590Z,9.86
2019-03-10T04:34:47.537Z,9.84
2019-03-10T04:37:18.434Z,9.81
2019-03-10T04:39:49.444Z,9.79
2019-03-10T04:42:20.398Z,9.80
2019-03-10T04:44:51.804Z,9.75
2019-03-10T04:47:22.870Z,9.66
2019-03-10T04:49:53.812Z,9.61
2019-03-10T04:52:24.745Z,9.56
2019-03-10T04:55:03.449Z,9.53
2019-03-10T04:57:34.296Z,9.56
2019-03-10T05:00:07.682Z,9.52
2019-03-10T05:02:38.774Z,9.51
2019-03-10T05:05:09.826Z,9.44
2019-03-10T05:07:40.852Z,9.40
2019-03-10T05:10:11.898Z,9.41
2019-03-10T05:12:43.032Z,9.42
2019-03-10T05:15:14.004Z,9.38
2019-03-10T05:17:44.946Z,9.38
2019-03-10T05:20:15.844Z,9.33
2019-03-10T05:22:46.737Z,9.23
2019-03-10T05:25:23.040Z,9.08
2019-03-10T05:27:54.072Z,8.99
2019-03-10T05:30:25.007Z,8.85
2019-03-10T05:32:55.949Z,8.79
2019-03-10T05:35:27.000Z,8.71
2019-03-10T05:37:57.984Z,8.65
2019-03-10T05:40:28.993Z,8.57
2019-03-10T05:43:00.084Z,8.47
2019-03-10T05:45:31.193Z,8.34
2019-03-10T05:48:02.066Z,8.24
2019-03-10T05:50:33.133Z,8.17
2019-03-10T05:53:04.131Z,8.14
2019-03-10T05:55:35.609Z,8.13
2019-03-10T05:58:06.779Z,8.12
2019-03-10T06:00:42.591Z,8.05
2019-03-10T06:03:10.616Z,8.05
2019-03-10T06:05:41.576Z,8.07
2019-03-10T06:08:12.606Z,8.07
2019-03-10T06:10:43.735Z,8.07
2019-03-10T06:13:14.701Z,8.03
2019-03-10T06:15:45.812Z,8.05
2019-03-10T06:18:16.873Z,8.08
2019-03-10T06:20:47.912Z,8.11
2019-03-10T06:23:19.045Z,8.07
2019-03-10T06:25:50.023Z,8.02
2019-03-10T06:28:21.020Z,8.00
2019-03-10T06:30:51.971Z,8.00
2019-03-10T06:33:23.106Z,7.97
2019-03-10T06:35:54.412Z,8.00
2019-03-10T06:38:25.476Z,8.00
2019-03-10T06:40:56.579Z,7.98
2019-03-10T06:43:31.067Z,8.00
2019-03-10T06:46:02.179Z,7.97
2019-03-10T06:48:33.492Z,7.95
2019-03-10T06:51:04.791Z,7.97
2019-03-10T06:53:35.693Z,8.00
2019-03-10T06:56:06.997Z,7.99
2019-03-10T06:58:38.063Z,8.04
2019-03-10T07:01:08.164Z,8.07
2019-03-10T07:03:39.342Z,8.07
2019-03-10T07:06:10.271Z,8.11
2019-03-10T07:08:41.777Z,8.08
2019-03-10T07:11:12.656Z,8.12
2019-03-10T07:13:43.862Z,8.09
2019-03-10T07:16:14.901Z,8.05
2019-03-10T07:18:46.354Z,8.04
2019-03-10T07:21:17.395Z,8.04
2019-03-10T07:23:48.645Z,7.96
2019-03-10T07:26:19.533Z,7.98
2019-03-10T07:28:55.108Z,8.04
2019-03-10T07:31:39.889Z,8.12
2019-03-10T07:34:15.620Z,8.15
2019-03-10T07:36:54.267Z,8.15
2019-03-10T07:39:31.707Z,8.10
2019-03-10T07:42:07.303Z,8.03
2019-03-10T07:44:51.351Z,8.07
2019-03-10T07:47:39.004Z,8.08
2019-03-10T07:50:16.793Z,8.09
2019-03-10T07:52:52.835Z,8.03
2019-03-10T07:55:25.594Z,8.04
2019-03-10T07:58:10.597Z,8.10
2019-03-10T08:00:43.381Z,8.08
2019-03-10T08:03:16.334Z,8.08
2019-03-10T08:05:56.747Z,8.19
2019-03-10T08:08:29.596Z,8.12
2019-03-10T08:11:12.349Z,8.20
2019-03-10T08:13:51.044Z,8.12
2019-03-10T08:16:32.325Z,8.07
2019-03-10T08:19:14.237Z,8.10
2019-03-10T08:22:05.034Z,8.06
2019-03-10T08:24:40.789Z,8.10
2019-03-10T08:27:13.501Z,8.13
2019-03-10T08:29:46.414Z,8.19
2019-03-10T08:32:37.339Z,8.14
2019-03-10T08:35:19.287Z,8.05
2019-03-10T08:38:00.909Z,8.16
2019-03-10T08:40:42.738Z,8.08
2019-03-10T08:43:18.338Z,8.16
2019-03-10T08:46:00.637Z,8.19
2019-03-10T08:48:35.005Z,8.20
2019-03-10T08:51:10.694Z,8.20
2019-03-10T08:53:52.042Z,8.22
2019-03-10T08:56:27.635Z,8.26
2019-03-10T08:59:16.424Z,8.32
2019-03-10T09:02:08.086Z,8.31
2019-03-10T09:04:43.680Z,8.41
2019-03-10T09:07:16.658Z,8.41
2019-03-10T09:10:05.413Z,8.34
2019-03-10T09:12:50.174Z,8.50
2019-03-10T09:15:25.411Z,8.65
2019-03-10T09:18:07.040Z,8.64
2019-03-10T09:20:54.707Z,8.77
2019-03-10T09:23:36.544Z,8.85
2019-03-10T09:26:17.536Z,9.00
2019-03-10T09:28:50.464Z,9.17
2019-03-10T09:31:31.939Z,9.34
2019-03-10T09:34:04.759Z,9.49
2019-03-10T09:36:37.311Z,9.58
2019-03-10T09:39:09.513Z,9.72
2019-03-10T09:41:51.110Z,9.83
2019-03-10T09:44:25.475Z,9.97
2019-03-10T09:47:00.760Z,10.03
2019-03-10T09:49:52.784Z,10.16
2019-03-10T09:52:34.741Z,10.18
2019-03-10T09:55:23.941Z,10.41
2019-03-10T09:57:58.161Z,10.48
2019-03-10T10:00:43.478Z,10.70
2019-03-10T10:03:32.704Z,10.86
2019-03-10T10:06:06.742Z,11.07
2019-03-10T10:08:39.552Z,11.23
2019-03-10T10:11:12.300Z,11.40
2019-03-10T10:13:54.083Z,11.66
2019-03-10T10:16:29.560Z,11.92
2019-03-10T10:19:17.344Z,12.05
2019-03-10T10:21:51.764Z,12.07
2019-03-10T10:24:25.466Z,12.08
2019-03-10T10:27:05.558Z,12.20
2019-03-10T10:29:43.321Z,12.25
2019-03-10T10:32:17.349Z,12.33
2019-03-10T10:34:59.072Z,12.36
2019-03-10T10:37:45.504Z,12.46
2019-03-10T10:40:25.974Z,12.63
2019-03-10T10:42:58.716Z,12.70
2019-03-10T10:45:34.318Z,13.02
2019-03-10T10:48:08.646Z,13.03
2019-03-10T10:50:41.353Z,12.85
2019-03-10T10:53:13.960Z,12.73
2019-03-10T10:55:47.295Z,12.68
2019-03-10T10:58:25.908Z,12.77
2019-03-10T11:01:03.429Z,12.75
2019-03-10T11:03:45.585Z,12.84
2019-03-10T11:06:19.680Z,12.86
2019-03-10T11:09:02.842Z,13.08
2019-03-10T11:11:34.527Z,13.27
2019-03-10T11:14:17.006Z,13.10
2019-03-10T11:17:06.359Z,13.30
2019-03-10T11:19:41.821Z,13.29
2019-03-10T11:22:20.429Z,13.41
2019-03-10T11:24:53.583Z,13.13
2019-03-10T11:27:44.499Z,14.13
2019-03-10T11:30:17.755Z,14.12
2019-03-10T11:32:50.361Z,14.27
2019-03-10T11:35:23.188Z,13.91
2019-03-10T11:37:58.212Z,13.51
2019-03-10T11:40:31.043Z,13.53
2019-03-10T11:43:03.588Z,14.06
2019-03-10T11:45:54.884Z,14.41
2019-03-10T11:48:42.905Z,13.88
2019-03-10T11:51:15.917Z,13.73
2019-03-10T11:53:50.323Z,14.17
2019-03-10T11:56:23.151Z,14.92
2019-03-10T11:59:14.160Z,15.02
2019-03-10T12:01:46.771Z,15.39
2019-03-10T12:04:19.346Z,14.72
2019-03-10T12:07:01.397Z,15.37
2019-03-10T12:09:32.396Z,16.21
2019-03-10T12:12:03.901Z,16.10
2019-03-10T12:14:34.837Z,16.28
2019-03-10T12:17:05.028Z,16.09
2019-03-10T12:19:36.387Z,15.38
2019-03-10T12:22:07.606Z,14.89
2019-03-10T12:24:38.771Z,15.57
2019-03-10T12:27:09.671Z,15.71
2019-03-10T12:29:40.897Z,15.56
2019-03-10T12:32:11.954Z,15.62
2019-03-10T12:34:43.159Z,15.26
2019-03-10T12:37:14.177Z,15.02
2019-03-10T12:39:46.022Z,14.92
2019-03-10T12:42:16.991Z,15.75
2019-03-10T12:44:48.107Z,15.57
2019-03-10T12:47:19.101Z,15.15
2019-03-10T12:49:49.250Z,15.55
2019-03-10T12:52:21.010Z,15.33
2019-03-10T12:54:51.979Z,15.08
2019-03-10T12:57:23.092Z,14.77
2019-03-10T12:59:54.085Z,14.85
2019-03-10T13:02:25.231Z,16.22
2019-03-10T13:04:56.307Z,16.89
2019-03-10T13:07:27.431Z,16.82
2019-03-10T13:09:58.329Z,16.84
2019-03-10T13:12:29.627Z,16.38
2019-03-10T13:15:00.656Z,15.33
2019-03-10T13:17:31.902Z,15.40
2019-03-10T13:20:02.810Z,15.14
2019-03-10T13:22:32.872Z,14.89
2019-03-10T13:25:05.195Z,14.45
2019-03-10T13:27:36.181Z,15.06
2019-03-10T13:30:10.653Z,16.03
2019-03-10T13:32:44.166Z,16.87
2019-03-10T13:35:14.509Z,16.11
2019-03-10T13:37:45.579Z,16.68
2019-03-10T13:40:16.839Z,17.15
2019-03-10T13:42:47.863Z,15.82
2019-03-10T13:45:19.649Z,15.07
2019-03-10T13:47:50.700Z,14.86
2019-03-10T13:50:21.974Z,15.06
2019-03-10T13:52:53.011Z,14.65
2019-03-10T13:55:24.347Z,13.97
2019-03-10T13:57:55.404Z,13.56
2019-03-10T14:00:26.486Z,13.15
2019-03-10T14:02:57.668Z,12.48
2019-03-10T14:05:28.627Z,12.13
2019-03-10T14:07:59.863Z,11.73
2019-03-10T14:10:30.834Z,11.75
2019-03-10T14:13:02.147Z,11.93
2019-03-10T14:15:33.282Z,12.15
2019-03-10T14:18:05.909Z,12.40
2019-03-10T14:20:36.788Z,13.20
2019-03-10T14:23:07.987Z,13.91
2019-03-10T14:25:38.979Z,14.14
2019-03-10T14:28:10.275Z,14.26
2019-03-10T14:30:41.451Z,14.32
2019-03-10T14:33:11.580Z,14.45
2019-03-10T14:35:42.741Z,14.68
2019-03-10T14:38:13.767Z,14.88
2019-03-10T14:40:45.086Z,14.61
2019-03-10T14:43:16.127Z,14.73
2019-03-10T14:45:47.266Z,14.84
2019-03-10T14:48:18.449Z,15.19
2019-03-10T14:50:49.681Z,15.42
2019-03-10T14:53:20.752Z,14.86
2019-03-10T14:56:43.879Z,15.60
2019-03-10T14:59:09.561Z,15.59
2019-03-10T15:01:40.978Z,15.45
2019-03-10T15:04:11.975Z,15.56
2019-03-10T15:06:43.371Z,15.08
2019-03-10T15:09:14.289Z,15.53
2019-03-10T15:11:45.498Z,15.69
2019-03-10T15:14:16.440Z,15.97
2019-03-10T15:16:46.606Z,15.73
2019-03-10T15:19:17.836Z,15.96
2019-03-10T15:21:48.874Z,15.96
2019-03-10T15:24:20.344Z,15.72
2019-03-10T15:26:51.265Z,15.97
2019-03-10T15:29:22.428Z,15.57
2019-03-10T15:31:53.489Z,15.34
2019-03-10T15:34:24.826Z,15.54
2019-03-10T15:36:56.295Z,15.45
2019-03-10T15:39:27.735Z,15.23
2019-03-10T15:41:58.638Z,14.64
2019-03-10T15:44:29.880Z,14.53
2019-03-10T15:47:00.818Z,14.01
2019-03-10T15:49:30.844Z,14.22
2019-03-10T15:52:02.338Z,14.16
2019-03-10T15:54:33.328Z,14.29
2019-03-10T15:57:04.622Z,14.49
2019-03-10T15:59:35.799Z,14.02
2019-03-10T16:02:07.175Z,14.21
2019-03-10T16:04:38.306Z,14.19
2019-03-10T16:07:09.470Z,13.89
2019-03-10T16:09:40.571Z,13.69
2019-03-10T16:12:11.725Z,13.51
2019-03-10T16:14:42.705Z,13.36
2019-03-10T16:17:14.051Z,13.38
2019-03-10T16:19:45.113Z,13.33
2019-03-10T16:22:16.303Z,13.34
2019-03-10T16:24:47.284Z,13.24
2019-03-10T16:27:17.630Z,13.24
2019-03-10T16:29:48.831Z,12.87
2019-03-10T16:32:19.916Z,12.47
2019-03-10T16:34:51.467Z,12.46
2019-03-10T16:37:22.347Z,12.66
2019-03-10T16:39:53.516Z,12.81
2019-03-10T16:42:24.490Z,12.86
2019-03-10T16:44:55.782Z,12.91
2019-03-10T16:47:26.752Z,12.86
2019-03-10T16:49:57.970Z,12.83
2019-03-10T16:52:29.189Z,12.76
2019-03-10T16:55:00.520Z,12.65
2019-03-10T16:57:31.727Z,12.60
2019-03-10T17:00:02.155Z,12.45
2019-03-10T17:02:34.578Z,12.35
2019-03-10T17:05:08.682Z,12.23
2019-03-10T17:07:39.707Z,12.21
2019-03-10T17:10:13.867Z,12.08
2019-03-10T17:12:44.953Z,11.97
2019-03-10T17:15:18.496Z,11.98
2019-03-10T17:17:49.818Z,11.87
2019-03-10T17:20:20.911Z,11.82
2019-03-10T17:22:51.863Z,11.80
2019-03-10T17:25:22.907Z,11.65
2019-03-10T17:27:53.936Z,11.73
2019-03-10T17:30:47.080Z,11.66
2019-03-10T17:41:05.037Z,11.37
2019-03-10T17:43:36.034Z,11.41
2019-03-10T17:46:07.967Z,11.41
2019-03-10T17:48:39.273Z,11.40
2019-03-10T17:51:10.207Z,11.43
2019-03-10T17:53:42.053Z,11.39
2019-03-10T17:56:13.185Z,11.29
2019-03-10T17:58:44.714Z,11.30
2019-03-10T18:01:15.655Z,11.21
2019-03-10T18:03:46.680Z,11.16
2019-03-10T18:06:17.733Z,11.07
2019-03-10T18:08:49.225Z,11.02
2019-03-10T18:11:22.311Z,10.92
2019-03-10T18:13:53.129Z,10.86
2019-03-10T18:16:24.045Z,10.86
2019-03-10T18:18:55.311Z,10.85
2019-03-10T18:21:26.375Z,10.82
2019-03-10T18:23:57.402Z,10.82
2019-03-10T18:26:28.792Z,10.88
2019-03-10T18:28:59.762Z,10.85
2019-03-10T18:31:30.881Z,10.78
2019-03-10T18:34:01.804Z,10.75
2019-03-10T18:37:07.093Z,10.73
2019-03-10T18:39:46.892Z,10.72
2019-03-10T18:42:19.416Z,10.66
2019-03-10T18:44:50.357Z,10.61
2019-03-10T18:47:24.244Z,10.60
2019-03-10T18:49:55.653Z,10.56
2019-03-10T18:52:26.739Z,10.43
2019-03-10T18:55:00.421Z,10.51
2019-03-10T18:57:31.441Z,10.48
2019-03-10T19:00:02.418Z,10.43
2019-03-10T19:02:33.477Z,10.39
2019-03-10T19:05:05.821Z,10.43
2019-03-10T19:07:36.935Z,10.32
2019-03-10T19:10:10.474Z,10.32
2019-03-10T19:12:41.608Z,10.32
2019-03-10T19:15:20.780Z,10.32
2019-03-10T19:17:52.004Z,10.00
2019-03-10T19:20:23.058Z,9.47
2019-03-10T19:22:54.156Z,9.04
2019-03-10T19:25:25.464Z,8.58
2019-03-10T19:27:56.524Z,8.48
2019-03-10T19:30:27.503Z,8.45
2019-03-10T19:32:58.548Z,8.23
2019-03-10T19:35:29.673Z,8.37
2019-03-10T19:38:01.122Z,8.54
2019-03-10T19:40:32.306Z,8.48
2019-03-10T19:43:03.210Z,8.57
2019-03-10T19:45:34.190Z,8.53
2019-03-10T19:48:05.365Z,8.51
2019-03-10T19:50:37.116Z,8.45
2019-03-10T19:53:08.113Z,8.52
2019-03-10T19:55:39.295Z,8.52
2019-03-10T19:58:11.076Z,8.52
2019-03-10T20:00:42.036Z,8.58
2019-03-10T20:03:13.082Z,8.54
2019-03-10T20:05:44.271Z,8.56
2019-03-10T20:08:15.358Z,8.43
2019-03-10T20:10:46.381Z,8.39
2019-03-10T20:13:17.322Z,8.41
2019-03-10T20:15:48.207Z,8.29
2019-03-10T20:18:41.411Z,8.20
2019-03-10T20:21:23.023Z,8.23
2019-03-10T20:23:54.025Z,8.20
2019-03-10T20:26:25.035Z,8.25
2019-03-10T20:28:56.157Z,8.25
2019-03-10T20:31:27.155Z,8.02
2019-03-10T20:33:58.673Z,7.25
2019-03-10T20:36:29.678Z,6.28
2019-03-10T20:39:26.423Z,5.79
2019-03-10T20:42:05.020Z,5.38
2019-03-10T20:44:31.055Z,4.81
2019-03-10T20:47:02.118Z,4.66
2019-03-10T20:49:33.158Z,4.59
2019-03-10T20:52:04.133Z,4.58
2019-03-10T20:54:35.077Z,4.68
2019-03-10T20:57:06.275Z,4.86
2019-03-10T20:59:37.144Z,4.96
2019-03-10T21:02:08.217Z,5.04
2019-03-10T21:04:39.169Z,5.11
2019-03-10T21:07:10.476Z,5.19
2019-03-10T21:09:41.631Z,5.20
2019-03-10T21:12:12.823Z,5.25
2019-03-10T21:14:43.793Z,5.29
2019-03-10T21:17:14.733Z,5.36
2019-03-10T21:19:45.661Z,5.41
2019-03-10T21:22:16.758Z,5.50
2019-03-10T21:24:48.515Z,5.54
2019-03-10T21:27:19.621Z,5.60
2019-03-10T21:29:50.529Z,5.66
2019-03-10T21:32:21.654Z,5.70
2019-03-10T21:34:53.283Z,5.67
2019-03-10T21:37:24.225Z,5.67
2019-03-10T21:39:55.125Z,5.70
2019-03-10T21:42:26.350Z,5.66
2019-03-10T21:44:58.208Z,5.64
2019-03-10T21:47:30.111Z,5.58
2019-03-10T21:50:01.442Z,5.51
2019-03-10T21:52:32.635Z,5.45
2019-03-10T21:55:08.317Z,5.40
2019-03-10T21:57:39.527Z,5.38
2019-03-10T22:00:18.412Z,5.41
2019-03-10T22:02:49.508Z,5.40
2019-03-10T22:05:20.487Z,5.41
2019-03-10T22:07:51.455Z,5.40
2019-03-10T22:10:27.556Z,5.34
2019-03-10T22:12:55.255Z,5.32
2019-03-10T22:15:26.632Z,5.27
2019-03-10T22:17:57.827Z,5.25
2019-03-10T22:20:28.963Z,5.18
2019-03-10T22:22:59.924Z,5.13
2019-03-10T22:25:30.905Z,5.15
2019-03-10T22:28:01.893Z,5.20
2019-03-10T22:30:32.965Z,5.24
2019-03-10T22:33:03.823Z,5.26
2019-03-10T22:35:34.864Z,5.28
2019-03-10T22:38:06.019Z,5.27
2019-03-10T22:40:36.980Z,5.25
2019-03-10T22:43:08.093Z,5.31
2019-03-10T22:45:39.039Z,5.30
2019-03-10T22:48:10.277Z,5.24
2019-03-10T22:50:41.221Z,5.16
2019-03-10T22:53:12.168Z,5.10
2019-03-10T22:55:43.132Z,5.02
2019-03-10T22:58:14.156Z,4.92
2019-03-10T23:00:46.808Z,4.86
2019-03-10T23:03:17.883Z,4.82
2019-03-10T23:05:48.934Z,4.81
2019-03-10T23:08:19.814Z,4.81
2019-03-10T23:10:50.772Z,4.81
2019-03-10T23:13:21.700Z,4.74
2019-03-10T23:15:52.762Z,4.72
2019-03-10T23:18:23.738Z,4.66
2019-03-10T23:20:54.884Z,4.62
2019-03-10T23:23:26.971Z,4.60
2019-03-10T23:25:57.946Z,4.50
2019-03-10T23:28:28.947Z,4.47
2019-03-10T23:31:02.999Z,4.47
2019-03-10T23:33:34.037Z,4.46
2019-03-10T23:36:05.059Z,4.37
2019-03-10T23:38:36.011Z,4.30
2019-03-10T23:41:07.065Z,4.27
2019-03-10T23:43:37.996Z,4.24
2019-03-10T23:46:08.926Z,4.19
2019-03-10T23:48:39.974Z,4.08
2019-03-10T23:51:11.206Z,4.00
2019-03-10T23:53:42.260Z,3.97
2019-03-10T23:56:13.220Z,3.92
2019-03-10T23:58:44.819Z,3.96
